Time;durP1;ratioP1;P1;durP2;ratioP2;P2;SDS_P1;SDS_P2;PMS_P1;PMS_P2;Temp;Humidity;BMP_temperature;BMP_pressure;BME280_temperature;BME280_humidity;BME280_pressure;Samples;Min_cycle;Max_cycle;Signal;HPM_P1;HPM_P2
2022/11/11 00:00:37;;;;;;;2.85;1.40;;;;;;;9.70;81.75;100735.09;4455295;32;33503;-73
2022/11/11 00:03:24;;;;;;;5.30;2.95;;;;;;;9.66;81.25;100739.38;4454071;32;35866;-72
2022/11/11 00:06:15;;;;;;;1.92;1.23;;;;;;;9.25;82.19;100740.44;4455162;32;34627;-73
2022/11/11 00:11:49;;;;;;;1.42;1.33;;;;;;;9.45;82.27;100740.78;4454755;32;34399;-73
2022/11/11 00:14:36;;;;;;;2.42;2.20;;;;;;;9.30;82.91;100746.59;4455107;32;35858;-73
2022/11/11 00:26:38;;;;;;;2.40;2.20;;;;;;;9.03;84.05;100759.97;4455047;32;35091;-73
2022/11/11 00:29:26;;;;;;;2.05;1.92;;;;;;;9.13;83.78;100753.22;4453945;32;35261;-73
2022/11/11 00:32:29;;;;;;;1.85;1.75;;;;;;;9.17;83.50;100765.41;4454972;32;33546;-73
2022/11/11 00:41:27;;;;;;;1.90;1.77;;;;;;;8.62;82.22;100748.81;4454952;32;34473;-73
2022/11/11 00:44:13;;;;;;;1.12;1.12;;;;;;;8.31;82.60;100753.31;4454886;32;33571;-73
2022/11/11 00:53:20;;;;;;;0.90;0.85;;;;;;;8.79;82.77;100757.81;4453874;32;35161;-74
2022/11/11 00:56:12;;;;;;;2.22;2.03;;;;;;;8.71;83.53;100760.22;4453899;32;33469;-73
2022/11/11 00:58:59;;;;;;;;;;;;;;;9.02;82.92;100759.97;4442422;32;33912;-73
2022/11/11 01:01:45;;;;;;;1.20;1.15;;;;;;;8.96;84.17;100765.03;4453481;32;35580;-73
2022/11/11 01:04:31;;;;;;;0.98;0.98;;;;;;;8.64;85.07;100760.09;4453747;32;34979;-73
2022/11/11 01:07:18;;;;;;;1.77;1.67;;;;;;;8.76;84.63;100752.53;4454590;32;33322;-73
2022/11/11 01:10:05;;;;;;;1.25;1.20;;;;;;;8.79;84.57;100756.91;4454321;32;33962;-73
2022/11/11 01:13:10;;;;;;;2.40;2.25;;;;;;;8.73;84.46;100760.28;4454524;32;35951;-73
2022/11/11 01:16:00;;;;;;;2.35;2.15;;;;;;;8.82;83.72;100757.84;4453642;32;34414;-73
2022/11/11 01:18:48;;;;;;;0.90;0.90;;;;;;;8.75;84.62;100761.16;4453378;32;34307;-73
2022/11/11 01:21:34;;;;;;;0.62;0.62;;;;;;;8.72;85.93;100756.81;4453250;32;34368;-74
2022/11/11 01:24:21;;;;;;;3.80;3.50;;;;;;;9.07;84.86;100760.91;4454346;32;35190;-72
2022/11/11 01:27:08;;;;;;;1.60;1.50;;;;;;;8.98;84.03;100755.53;4453356;32;35292;-73
2022/11/11 01:29:54;;;;;;;1.33;1.27;;;;;;;9.16;83.03;100761.09;4453363;32;33315;-74
2022/11/11 01:32:41;;;;;;;0.85;0.85;;;;;;;8.96;83.69;100767.62;4455695;32;33930;-72
2022/11/11 01:35:27;;;;;;;1.07;0.80;;;;;;;9.21;82.79;100754.25;4456161;32;35210;-73
2022/11/11 01:38:14;;;;;;;1.10;1.10;;;;;;;8.89;82.85;100758.84;4455343;32;34176;-72
2022/11/11 01:41:31;;;;;;;0.60;0.60;;;;;;;8.76;83.30;100756.88;4455921;32;34261;-73
2022/11/11 01:44:10;;;;;;;2.50;1.25;;;;;;;8.96;81.86;100755.50;4455820;32;34687;-73
2022/11/11 01:47:01;;;;;;;1.87;1.50;;;;;;;8.84;81.95;100761.38;4456047;32;35099;-75
2022/11/11 01:49:57;;;;;;;3.25;2.95;;;;;;;8.96;82.50;100754.66;4455055;32;35193;-73
2022/11/11 01:52:44;;;;;;;2.30;2.17;;;;;;;8.97;82.57;100753.81;4454948;32;33499;-73
2022/11/11 01:55:31;;;;;;;0.95;0.95;;;;;;;9.15;82.89;100759.31;4455091;32;33280;-72
2022/11/11 01:58:18;;;;;;;1.30;1.20;;;;;;;9.29;81.88;100757.84;4454956;32;35933;-73
2022/11/11 02:01:05;;;;;;;4.70;4.30;;;;;;;9.16;83.35;100753.28;4455704;32;34478;-74
2022/11/11 02:07:04;;;;;;;1.10;1.10;;;;;;;9.03;83.87;100741.78;4454423;32;33183;-73
2022/11/11 02:09:51;;;;;;;2.53;2.35;;;;;;;8.99;83.89;100750.38;4455997;32;35105;-73
2022/11/11 02:15:44;;;;;;;2.42;1.90;;;;;;;9.33;81.63;100757.91;4455658;32;34555;-72
2022/11/11 02:18:32;;;;;;;1.83;1.73;;;;;;;9.39;81.03;100763.19;4455025;32;33533;-73
2022/11/11 02:21:31;;;;;;;2.65;2.33;;;;;;;9.46;81.16;100767.66;4454449;32;34412;-72
2022/11/11 02:24:19;;;;;;;0.95;0.95;;;;;;;9.34;82.13;100763.13;4454880;32;34520;-73
2022/11/11 02:27:08;;;;;;;1.27;1.23;;;;;;;9.26;82.37;100765.56;4454823;32;33596;-73
2022/11/11 02:29:55;;;;;;;4.03;1.98;;;;;;;9.22;83.21;100765.50;4454805;32;34712;-73
2022/11/11 02:32:43;;;;;;;1.85;1.75;;;;;;;8.91;84.93;100772.72;4454858;32;35175;-72
2022/11/11 02:35:33;;;;;;;1.42;1.37;;;;;;;9.31;83.30;100768.28;4454787;32;34399;-72
2022/11/11 02:38:19;;;;;;;0.60;0.60;;;;;;;9.09;85.82;100762.69;4454893;32;33462;-72
2022/11/11 02:44:11;;;;;;;1.87;1.77;;;;;;;9.53;83.11;100777.31;4455571;32;35232;-72
2022/11/11 02:46:58;;;;;;;2.90;2.70;;;;;;;9.45;83.87;100782.37;4455767;32;34346;-72
2022/11/11 02:49:44;;;;;;;1.83;1.73;;;;;;;9.62;82.64;100776.59;4454399;32;32792;-72
2022/11/11 02:52:30;;;;;;;1.30;1.23;;;;;;;9.62;82.71;100787.00;4455726;32;34029;-72
2022/11/11 02:55:17;;;;;;;3.83;2.78;;;;;;;9.25;83.68;100787.25;4455616;32;35209;-73
2022/11/11 02:58:03;;;;;;;3.58;2.72;;;;;;;9.15;84.26;100790.50;4455599;32;34475;-72
2022/11/11 03:00:50;;;;;;;1.02;1.02;;;;;;;9.35;83.59;100795.19;4455633;32;33497;-73
2022/11/11 03:03:36;;;;;;;4.35;3.92;;;;;;;9.10;84.98;100807.75;4455574;32;34080;-75
2022/11/11 03:06:23;;;;;;;1.42;1.33;;;;;;;9.20;84.93;100798.41;4455511;32;35771;-72
2022/11/11 03:09:09;;;;;;;2.97;2.78;;;;;;;9.15;85.03;100806.09;4454563;32;34447;-72
2022/11/11 03:11:56;;;;;;;1.52;1.45;;;;;;;9.41;84.67;100800.50;4455539;32;33564;-73
2022/11/11 03:14:43;;;;;;;;;;;;;;;9.36;84.86;100808.22;4454777;32;34051;-72
2022/11/11 03:17:38;;;;;;;1.33;1.23;;;;;;;9.59;83.45;100816.41;4455577;32;34966;-72
2022/11/11 03:23:30;;;;;;;2.05;1.33;;;;;;;9.43;82.92;100815.28;4454452;32;33899;-72
2022/11/11 03:26:18;;;;;;;3.53;3.12;;;;;;;9.53;81.20;100820.63;4454490;32;34720;-72
2022/11/11 03:29:05;;;;;;;1.35;1.25;;;;;;;9.73;80.40;100824.47;4455380;32;35087;-73
2022/11/11 03:31:51;;;;;;;1.83;1.70;;;;;;;9.39;81.44;100822.97;4443609;32;35192;-73
2022/11/11 03:34:37;;;;;;;2.15;2.05;;;;;;;8.99;82.41;100827.47;4455341;32;34307;-73
2022/11/11 03:40:29;;;;;;;2.95;2.50;;;;;;;8.66;84.04;100833.69;4455296;32;34985;-73
2022/11/11 03:43:17;;;;;;;1.27;1.27;;;;;;;8.54;84.44;100834.31;4454122;32;34605;-73
2022/11/11 03:46:04;;;;;;;4.15;2.45;;;;;;;8.59;85.06;100837.00;4454250;32;34343;-72
2022/11/11 03:48:51;;;;;;;;;;;;;;;8.53;86.03;100849.00;4454664;32;34057;-72
2022/11/11 03:51:37;;;;;;;2.28;1.87;;;;;;;8.29;87.92;100838.91;4455312;32;35356;-73
2022/11/11 03:54:23;;;;;;;2.45;1.75;;;;;;;8.61;86.84;100838.81;4454179;32;35290;-72
2022/11/11 04:00:18;;;;;;;2.60;1.85;;;;;;;8.15;89.06;100841.22;4455196;32;34060;-74
2022/11/11 04:12:24;;;;;;;2.65;2.45;;;;;;;8.75;85.84;100839.09;4455206;32;34004;-72
2022/11/11 04:18:15;;;;;;;1.45;1.35;;;;;;;8.54;84.32;100853.38;4455223;32;34680;-73
2022/11/11 04:27:20;;;;;;;0.70;0.70;;;;;;;8.84;84.45;100851.38;4454148;32;36031;-72
2022/11/11 04:30:07;;;;;;;2.10;1.10;;;;;;;8.63;85.80;100851.81;4432390;32;33714;-73
2022/11/11 04:32:54;;;;;;;1.42;1.33;;;;;;;8.61;85.94;100850.91;4455002;32;33395;-72
2022/11/11 04:35:40;;;;;;;1.60;1.50;;;;;;;8.73;86.54;100851.16;4454977;32;34825;-73
2022/11/11 04:41:32;;;;;;;1.77;1.67;;;;;;;8.89;84.89;100863.66;4454833;32;34385;-72
2022/11/11 04:47:57;;;;;;;1.52;1.42;;;;;;;8.60;86.02;100859.56;4454837;32;33960;-72
2022/11/11 04:50:44;;;;;;;0.57;0.57;;;;;;;8.21;86.33;100860.37;4453793;32;36026;-72
2022/11/11 04:53:31;;;;;;;2.55;2.40;;;;;;;8.48;85.76;100865.34;4453682;32;34316;-72
2022/11/11 04:59:22;;;;;;;1.30;1.23;;;;;;;8.54;85.27;100866.38;4453427;32;34231;-72
2022/11/11 05:05:14;;;;;;;1.25;1.15;;;;;;;8.47;84.36;100868.78;4454390;32;35089;-72
2022/11/11 05:11:06;;;;;;;3.12;1.80;;;;;;;8.11;87.01;100864.47;4454439;32;33860;-72
2022/11/11 05:23:09;;;;;;;1.75;1.15;;;;;;;7.84;88.67;100865.53;4453657;32;33920;-72
2022/11/11 05:25:55;;;;;;;0.60;0.60;;;;;;;7.99;89.06;100859.84;4454382;32;35440;-73
2022/11/11 05:28:42;;;;;;;1.80;1.02;;;;;;;7.81;89.64;100860.28;4454242;32;34351;-73
2022/11/11 05:31:29;;;;;;;2.22;2.03;;;;;;;8.12;87.24;100867.09;4454241;32;34355;-72
2022/11/11 05:34:15;;;;;;;3.25;1.77;;;;;;;7.83;88.36;100868.97;4438321;32;34102;-73
2022/11/11 05:37:02;;;;;;;8.52;1.67;;;;;;;7.98;87.10;100873.66;4439509;32;36021;-74
2022/11/11 05:39:48;;;;;;;1.40;1.37;;;;;;;8.12;87.03;100876.59;4447227;32;34584;-72
2022/11/11 05:42:34;;;;;;;2.17;1.67;;;;;;;8.25;86.08;100878.63;4451203;32;33662;-72
2022/11/11 05:45:26;;;;;;;1.30;0.90;;;;;;;8.51;84.02;100876.66;4436089;32;34821;-74
2022/11/11 05:48:12;;;;;;;2.58;2.37;;;;;;;8.29;85.27;100870.06;4436315;32;35909;-72
2022/11/11 05:50:59;;;;;;;1.17;1.17;;;;;;;7.64;86.62;100883.19;4437706;32;34229;-72
2022/11/11 05:53:45;;;;;;;0.93;0.93;;;;;;;7.89;86.37;100883.81;4438466;32;33466;-72
2022/11/11 05:56:32;;;;;;;0.80;0.80;;;;;;;7.93;85.61;100889.09;4437378;32;34721;-72
2022/11/11 05:59:19;;;;;;;2.78;2.50;;;;;;;7.89;86.15;100894.19;4438113;32;34950;-72
2022/11/11 06:02:05;;;;;;;2.60;1.87;;;;;;;7.92;86.52;100889.06;4437167;32;35328;-73
2022/11/11 06:04:53;;;;;;;2.33;1.35;;;;;;;7.94;86.07;100888.28;4438359;32;33621;-72
2022/11/11 06:07:39;;;;;;;0.70;0.70;;;;;;;7.61;87.12;100888.28;4438314;32;33823;-71
2022/11/11 06:10:32;;;;;;;2.92;2.10;;;;;;;7.63;86.83;100890.94;4438150;32;35921;-74
2022/11/11 06:13:18;;;;;;;1.55;1.50;;;;;;;7.57;86.34;100896.81;4437282;32;34535;-71
2022/11/11 06:16:05;;;;;;;0.97;0.97;;;;;;;7.67;86.87;100897.94;4438127;32;34259;-72
2022/11/11 06:18:51;;;;;;;1.23;1.23;;;;;;;7.52;86.70;100906.22;4439184;32;33965;-72
2022/11/11 06:21:56;;;;;;;0.70;0.70;;;;;;;7.60;87.29;100907.28;4438998;32;34364;-72
2022/11/11 06:26:11;;;;;;;3.83;1.25;;;;;;;7.72;86.85;100910.19;4440373;32;34329;-71
2022/11/11 06:27:48;;;;;;;1.27;1.23;;;;;;;7.92;86.39;100905.53;4440318;32;34320;-71
2022/11/11 06:30:35;;;;;;;0.85;0.85;;;;;;;8.24;85.35;100909.72;4440402;32;33838;-72
2022/11/11 06:33:36;;;;;;;3.10;1.73;;;;;;;8.35;81.95;100916.94;4440275;32;35833;-73
2022/11/11 06:36:22;;;;;;;3.65;2.40;;;;;;;8.24;84.01;100927.91;4440243;32;34330;-72
2022/11/11 06:39:09;;;;;;;1.25;1.23;;;;;;;8.15;83.73;100926.84;4440282;32;33557;-72
2022/11/11 06:41:55;;;;;;;1.83;1.73;;;;;;;8.36;84.27;100930.78;4439328;32;34770;-74
2022/11/11 06:44:41;;;;;;;0.90;0.90;;;;;;;8.33;85.85;100922.94;4440217;32;35918;-73
2022/11/11 06:47:28;;;;;;;0.90;0.90;;;;;;;8.88;86.78;100923.34;4440125;32;35049;-72
2022/11/11 06:50:14;;;;;;;1.17;1.17;;;;;;;9.30;86.40;100928.56;4440002;32;33447;-72
2022/11/11 06:53:06;;;;;;;2.92;2.08;;;;;;;9.68;83.49;100930.16;4439227;32;33568;-71
2022/11/11 06:55:52;;;;;;;2.10;1.98;;;;;;;10.53;80.07;100923.78;4428355;32;35088;-72
2022/11/11 06:58:39;;;;;;;3.65;3.25;;;;;;;10.56;79.86;100934.25;4440172;32;34472;-72
2022/11/11 07:01:26;;;;;;;1.60;1.48;;;;;;;10.46;79.68;100937.56;4439205;32;34131;-73
2022/11/11 07:04:12;;;;;;;3.00;2.12;;;;;;;10.74;79.56;100938.84;4440269;32;33844;-72
2022/11/11 07:06:58;;;;;;;1.83;1.73;;;;;;;10.42;79.95;100953.13;4440170;32;35524;-72
2022/11/11 07:09:45;;;;;;;2.63;2.33;;;;;;;10.53;80.92;100960.25;4440154;32;35224;-74
2022/11/11 07:12:31;;;;;;;0.90;0.90;;;;;;;10.65;80.62;100962.16;4440112;32;33563;-72
2022/11/11 07:15:17;;;;;;;3.40;3.05;;;;;;;10.56;81.01;100974.19;4438868;32;33851;-72
2022/11/11 07:18:04;;;;;;;1.35;1.25;;;;;;;10.49;82.28;100974.06;4438817;32;34637;-74
2022/11/11 07:20:51;;;;;;;1.62;1.52;;;;;;;10.51;82.04;100973.22;4439844;32;34314;-72
2022/11/11 07:23:37;;;;;;;1.80;1.70;;;;;;;10.51;82.58;100978.44;4440040;32;34278;-72
2022/11/11 07:26:23;;;;;;;2.10;2.00;;;;;;;10.61;83.29;100989.91;4439700;32;34072;-71
2022/11/11 07:29:11;;;;;;;1.77;1.67;;;;;;;10.78;82.66;100998.84;4439933;32;35545;-72
2022/11/11 07:31:57;;;;;;;3.53;2.17;;;;;;;10.87;81.69;100992.91;4438988;32;34530;-73
2022/11/11 07:34:44;;;;;;;2.08;1.52;;;;;;;11.23;79.92;100993.37;4438910;32;33347;-73
2022/11/11 07:37:30;;;;;;;0.57;0.52;;;;;;;11.19;80.94;100998.56;4438566;32;32769;-73
2022/11/11 07:40:18;;;;;;;1.42;1.37;;;;;;;11.41;80.26;101000.56;4439852;32;36011;-71
2022/11/11 07:43:04;;;;;;;2.50;1.92;;;;;;;11.36;79.40;101003.09;4439581;32;34566;-76
2022/11/11 07:45:51;;;;;;;2.58;2.37;;;;;;;11.24;81.84;101005.56;4439783;32;33381;-79
2022/11/11 07:48:37;;;;;;;1.77;1.67;;;;;;;11.68;78.58;101010.44;4427749;32;33488;-75
2022/11/11 07:51:24;;;;;;;0.85;0.85;;;;;;;12.10;78.68;101017.91;4438864;32;35721;-74
2022/11/11 07:54:10;;;;;;;1.77;1.48;;;;;;;12.18;76.83;101018.00;4439795;32;34431;-75
2022/11/11 07:56:57;;;;;;;2.37;2.17;;;;;;;12.79;73.53;101015.00;4438765;32;33510;-75
2022/11/11 07:59:43;;;;;;;0.90;0.90;;;;;;;12.28;75.55;101009.38;4428187;32;34875;-75
2022/11/11 08:02:30;;;;;;;0.90;0.90;;;;;;;12.30;75.21;101009.38;4439726;32;35874;-76
2022/11/11 08:05:16;;;;;;;2.05;1.95;;;;;;;12.44;75.34;101010.41;4439874;32;35403;-76
2022/11/11 08:08:07;;;;;;;1.55;1.45;;;;;;;12.73;74.33;101012.34;4438807;32;34273;-74
2022/11/11 08:10:54;;;;;;;0.62;0.62;;;;;;;12.45;74.98;101003.44;4438815;32;34810;-75
2022/11/11 08:13:42;;;;;;;2.50;1.58;;;;;;;12.68;74.92;101009.69;4427495;32;34541;-75
2022/11/11 08:16:29;;;;;;;1.50;1.33;;;;;;;12.51;75.43;101013.91;4438485;32;34886;-75
2022/11/11 08:19:15;;;;;;;1.90;1.77;;;;;;;12.80;74.69;101018.50;4439569;32;33360;-77
2022/11/11 08:22:03;;;;;;;3.17;2.90;;;;;;;12.76;76.47;101027.16;4439399;32;34787;-75
2022/11/11 08:24:49;;;;;;;1.00;1.00;;;;;;;13.09;74.39;101011.72;4439682;32;36004;-75
2022/11/11 08:27:57;;;;;;;3.60;1.50;;;;;;;12.83;75.61;101010.66;4439545;32;35341;-75
2022/11/11 08:30:43;;;;;;;1.60;1.50;;;;;;;13.57;73.46;101006.75;4438586;32;33585;-75
2022/11/11 08:33:30;;;;;;;3.37;2.72;;;;;;;14.91;67.42;101009.53;4439520;32;33967;-76
2022/11/11 08:36:29;;;;;;;1.60;1.50;;;;;;;16.10;64.10;101023.06;4439330;32;35099;-76
2022/11/11 08:39:16;;;;;;;1.05;1.05;;;;;;;16.58;61.96;101027.97;4439569;32;34658;-77
2022/11/11 08:42:02;;;;;;;2.67;2.42;;;;;;;16.91;60.43;101040.91;4439140;32;33561;-76
2022/11/11 08:44:50;;;;;;;1.65;1.55;;;;;;;16.25;64.22;101043.16;4438495;32;33960;-76
2022/11/11 08:47:37;;;;;;;1.48;1.37;;;;;;;15.56;64.81;101027.69;4438464;32;35053;-77
2022/11/11 08:50:24;;;;;;;1.05;1.02;;;;;;;16.10;62.61;101022.22;4438127;32;34294;-76
2022/11/11 08:53:11;;;;;;;1.55;1.45;;;;;;;16.01;60.35;101025.75;4439412;32;33223;-76
2022/11/11 08:56:01;;;;;;;3.65;2.20;;;;;;;15.33;63.31;101026.03;4439151;32;34082;-76
2022/11/11 08:58:48;;;;;;;1.95;1.85;;;;;;;15.40;62.45;101032.12;4439102;32;35199;-76
2022/11/11 09:01:35;;;;;;;6.53;3.22;;;;;;;15.62;61.14;101022.44;4438236;32;34442;-77
2022/11/11 09:04:22;;;;;;;1.20;1.20;;;;;;;14.88;63.86;101035.78;4439147;32;34298;-77
2022/11/11 09:07:28;;;;;;;1.90;1.80;;;;;;;14.76;64.01;101041.03;4439046;32;34119;-76
2022/11/11 09:10:14;;;;;;;1.85;1.75;;;;;;;15.33;61.76;101035.66;4438936;32;34993;-75
2022/11/11 09:13:01;;;;;;;2.87;2.65;;;;;;;15.54;62.53;101042.59;4439049;32;34335;-76
2022/11/11 09:15:47;;;;;;;;;;;;;;;15.89;60.89;101041.59;4437959;32;33484;-76
2022/11/11 09:18:35;;;;;;;1.65;1.55;;;;;;;16.60;58.73;101028.81;4452752;32;34997;-76
2022/11/11 09:21:23;;;;;;;1.75;1.65;;;;;;;16.62;58.84;101034.97;4453993;32;35141;-76
2022/11/11 09:24:10;;;;;;;1.77;1.67;;;;;;;17.04;57.10;101035.47;4453394;32;34631;-76
2022/11/11 09:26:57;;;;;;;2.40;2.20;;;;;;;16.85;57.07;101036.53;4453246;32;34251;-75
2022/11/11 09:29:44;;;;;;;2.80;1.73;;;;;;;17.50;55.80;101035.84;4453031;32;34024;-75
2022/11/11 09:32:31;;;;;;;0.80;0.80;;;;;;;17.59;54.88;101031.34;4453209;32;35082;-75
2022/11/11 09:35:19;;;;;;;1.67;1.58;;;;;;;18.15;54.41;101033.25;4453112;32;34499;-75
2022/11/11 09:38:05;;;;;;;2.85;2.33;;;;;;;18.93;52.73;101039.91;4442187;32;32830;-75
2022/11/11 09:41:15;;;;;;;1.65;1.52;;;;;;;18.73;52.55;101034.94;4442016;32;33814;-75
2022/11/11 09:44:03;;;;;;;3.70;2.20;;;;;;;20.18;48.75;101025.94;4426509;32;35155;-75
2022/11/11 09:47:11;;;;;;;3.33;2.70;;;;;;;20.08;47.39;101020.88;4437593;32;35180;-76
2022/11/11 09:50:01;;;;;;;2.47;1.95;;;;;;;20.39;47.10;101021.91;4438569;32;33429;-76
2022/11/11 09:53:14;;;;;;;1.55;1.45;;;;;;;20.40;47.47;101008.62;4439090;32;34703;-76
2022/11/11 09:56:08;;;;;;;1.98;1.87;;;;;;;21.93;44.61;101018.56;4439528;32;34861;-76
2022/11/11 09:59:20;;;;;;;4.97;1.75;;;;;;;22.80;42.32;101013.13;4439531;32;35024;-76
2022/11/11 10:02:30;;;;;;;2.12;1.83;;;;;;;23.19;41.76;101016.19;4439641;32;34407;-76
2022/11/11 10:05:24;;;;;;;1.40;1.30;;;;;;;24.68;38.73;101012.16;4439306;32;34177;-76
2022/11/11 10:08:24;;;;;;;1.52;1.42;;;;;;;24.48;39.92;101012.97;4440480;32;35097;-75
2022/11/11 10:11:20;;;;;;;2.60;1.73;;;;;;;24.29;39.22;101020.00;4439551;32;34601;-76
2022/11/11 10:14:06;;;;;;;1.62;1.52;;;;;;;25.51;38.26;101018.31;4439523;32;33645;-76
2022/11/11 10:17:06;;;;;;;1.50;1.40;;;;;;;26.33;34.68;101017.09;4440498;32;33960;-75
2022/11/11 10:20:14;;;;;;;1.92;1.62;;;;;;;25.07;36.90;101011.34;4439312;32;36030;-76
2022/11/11 10:23:07;;;;;;;1.73;1.62;;;;;;;25.03;36.83;101006.22;4439388;32;34309;-75
2022/11/11 10:25:55;;;;;;;2.50;1.83;;;;;;;23.01;39.11;101011.50;4439501;32;32962;-76
2022/11/11 10:28:44;;;;;;;3.17;2.03;;;;;;;22.11;40.81;101003.00;4439403;32;34662;-76
2022/11/11 10:31:30;;;;;;;1.50;1.40;;;;;;;22.06;40.84;100999.63;4439293;32;36036;-76
2022/11/11 10:34:18;;;;;;;1.33;1.23;;;;;;;21.33;43.31;100993.81;4440333;32;35226;-76
2022/11/11 10:37:17;;;;;;;3.28;1.90;;;;;;;23.01;41.01;100996.44;4440214;32;34410;-76
2022/11/11 10:40:09;;;;;;;2.58;2.35;;;;;;;22.88;39.80;100985.38;4439329;32;34145;-76
2022/11/11 10:42:56;;;;;;;1.95;1.80;;;;;;;24.12;38.00;100991.41;4439937;32;35989;-76
2022/11/11 10:46:17;;;;;;;2.03;1.73;;;;;;;23.06;40.34;100983.88;4440240;32;34307;-76
2022/11/11 10:49:16;;;;;;;2.17;1.58;;;;;;;22.62;41.29;100993.37;4440322;32;33531;-75
2022/11/11 10:52:15;;;;;;;0.82;0.82;;;;;;;23.02;40.27;100992.00;4440117;32;34714;-75
2022/11/11 10:55:06;;;;;;;1.37;1.27;;;;;;;22.33;42.80;100990.78;4438896;32;36083;-75
2022/11/11 10:58:26;;;;;;;1.58;1.37;;;;;;;21.72;42.30;101012.12;4439168;32;35445;-75
2022/11/11 11:01:16;;;;;;;0.80;0.80;;;;;;;20.58;44.19;100996.72;4440107;32;33548;-75
2022/11/11 11:04:13;;;;;;;2.30;2.10;;;;;;;19.80;46.71;100993.28;4428127;32;34012;-76
2022/11/11 11:07:02;;;;;;;0.80;0.80;;;;;;;19.53;48.15;100998.25;4439132;32;35081;-76
2022/11/11 11:09:55;;;;;;;2.70;1.98;;;;;;;18.59;48.62;100992.09;4438897;32;34333;-75
2022/11/11 11:12:52;;;;;;;2.20;2.00;;;;;;;17.78;52.61;100994.22;4439150;32;33360;-76
2022/11/11 11:15:43;;;;;;;3.37;2.65;;;;;;;17.20;54.48;100978.25;4439027;32;34038;-75
2022/11/11 11:18:30;;;;;;;1.83;1.73;;;;;;;16.82;56.20;100963.75;4439029;32;35036;-75
2022/11/11 11:21:16;;;;;;;4.05;2.47;;;;;;;16.83;55.40;100960.25;4439035;32;34276;-76
2022/11/11 11:24:03;;;;;;;;;;;;;;;17.05;55.61;100965.31;4439311;32;33314;-75
2022/11/11 11:26:58;;;;;;;3.60;2.08;;;;;;;16.83;57.16;100970.78;4439060;32;34122;-75
2022/11/11 11:29:44;;;;;;;1.27;1.17;;;;;;;16.54;59.09;100964.91;4439870;32;35977;-75
2022/11/11 11:32:31;;;;;;;4.07;3.05;;;;;;;16.63;57.68;100962.19;4439859;32;34611;-75
2022/11/11 11:35:30;;;;;;;1.85;1.75;;;;;;;16.25;58.87;100958.13;4439954;32;34126;-75
2022/11/11 11:38:17;;;;;;;5.18;2.90;;;;;;;16.51;58.13;100962.31;4439808;32;33875;-75
2022/11/11 11:41:04;;;;;;;1.85;1.75;;;;;;;16.42;59.25;100964.12;4439837;32;35045;-75
2022/11/11 11:43:50;;;;;;;0.80;0.77;;;;;;;16.32;59.61;100957.19;4438641;32;34529;-75
2022/11/11 11:46:38;;;;;;;3.30;2.78;;;;;;;17.02;58.67;100962.69;4439943;32;33330;-75
2022/11/11 11:50:05;;;;;;;2.65;2.45;;;;;;;16.79;59.56;100963.78;4438924;32;33837;-75
2022/11/11 11:53:16;;;;;;;1.73;1.62;;;;;;;17.07;59.07;100967.91;4421418;32;36041;-75
2022/11/11 11:56:02;;;;;;;2.50;2.00;;;;;;;16.64;61.80;100964.81;4439490;32;35011;-75
2022/11/11 11:59:04;;;;;;;2.40;2.10;;;;;;;17.02;60.51;100966.19;4438588;32;33736;-75
2022/11/11 12:02:06;;;;;;;2.87;2.65;;;;;;;16.90;61.00;100961.06;4439682;32;34703;-75
2022/11/11 12:05:06;;;;;;;1.92;1.73;;;;;;;16.87;61.36;100963.72;4438725;32;35182;-75
2022/11/11 12:08:05;;;;;;;1.27;1.20;;;;;;;16.79;62.58;100968.16;4439658;32;34484;-75
2022/11/11 12:10:57;;;;;;;2.37;2.25;;;;;;;16.57;62.78;100967.50;4438711;32;33419;-75
2022/11/11 12:14:23;;;;;;;1.95;1.85;;;;;;;16.43;63.71;100970.25;4438501;32;33498;-75
2022/11/11 12:17:25;;;;;;;3.03;2.70;;;;;;;16.77;62.18;100981.34;4427691;32;35051;-76
2022/11/11 12:20:15;;;;;;;1.83;1.73;;;;;;;16.64;61.95;100982.34;4439380;32;34502;-75
2022/11/11 12:23:22;;;;;;;3.00;1.87;;;;;;;16.38;64.41;100972.94;4438227;32;32842;-75
2022/11/11 12:26:38;;;;;;;2.20;2.00;;;;;;;16.56;64.01;100971.91;4439411;32;33796;-75
2022/11/11 12:30:04;;;;;;;1.55;1.45;;;;;;;16.51;64.07;100963.16;4439509;32;35068;-75
2022/11/11 12:33:21;;;;;;;2.20;2.05;;;;;;;16.11;66.33;100964.38;4431361;32;34453;-75
2022/11/11 12:36:29;;;;;;;2.73;2.07;;;;;;;16.23;64.93;100963.41;4438512;32;33355;-75
2022/11/11 12:39:37;;;;;;;2.03;1.92;;;;;;;16.10;65.11;100978.41;4427674;32;33300;-75
2022/11/11 12:42:38;;;;;;;0.80;0.80;;;;;;;16.27;64.96;100982.66;4439342;32;36035;-75
2022/11/11 12:45:48;;;;;;;0.95;0.95;;;;;;;16.18;63.47;100985.34;4439114;32;34529;-75
2022/11/11 12:48:56;;;;;;;1.65;1.55;;;;;;;15.84;64.97;100975.94;4438349;32;33445;-75
2022/11/11 12:51:55;;;;;;;0.80;0.80;;;;;;;16.17;63.78;100979.22;4438389;32;33907;-75
2022/11/11 12:54:50;;;;;;;10.15;1.77;;;;;;;16.66;62.29;100967.44;4439202;32;36017;-75
2022/11/11 12:58:04;;;;;;;1.60;1.48;;;;;;;16.61;60.89;100961.34;4438858;32;34349;-75
2022/11/11 13:01:08;;;;;;;1.30;1.20;;;;;;;16.44;61.17;100966.75;4439175;32;34191;-75
2022/11/11 13:04:55;;;;;;;2.40;1.95;;;;;;;16.07;61.63;100982.81;4427021;32;32585;-75
2022/11/11 13:08:09;;;;;;;1.00;1.00;;;;;;;16.34;59.76;100981.75;4406248;32;34927;-75
2022/11/11 13:10:58;;;;;;;0.98;0.98;;;;;;;16.05;60.40;100974.94;4395662;32;34453;-75
2022/11/11 13:14:22;;;;;;;1.35;1.25;;;;;;;15.60;62.01;100966.44;4439151;32;33512;-75
2022/11/11 13:17:12;;;;;;;1.55;1.02;;;;;;;15.77;61.60;100952.34;4438892;32;33868;-75
2022/11/11 13:20:04;;;;;;;6.15;2.35;;;;;;;15.58;62.76;100952.41;4437858;32;35072;-75
2022/11/11 13:22:51;;;;;;;1.33;1.23;;;;;;;15.46;63.36;100952.47;4437961;32;34490;-75
2022/11/11 13:25:43;;;;;;;1.30;1.20;;;;;;;15.62;62.01;100938.41;4438960;32;33445;-75
2022/11/11 13:28:39;;;;;;;6.85;1.85;;;;;;;14.98;64.41;100945.69;4439528;32;33995;-75
2022/11/11 13:31:33;;;;;;;2.50;1.40;;;;;;;15.52;62.33;100947.22;4429125;32;35999;-75
2022/11/11 13:34:20;;;;;;;1.23;1.12;;;;;;;15.77;61.32;100952.34;4439832;32;34311;-75
2022/11/11 13:37:09;;;;;;;1.02;1.00;;;;;;;14.98;64.36;100956.19;4440740;32;33489;-75
2022/11/11 13:40:18;;;;;;;1.92;1.48;;;;;;;15.09;64.08;100952.66;4439719;32;34246;-76
2022/11/11 13:43:26;;;;;;;1.25;1.15;;;;;;;15.43;62.55;100952.53;4428745;32;34457;-75
2022/11/11 13:46:34;;;;;;;0.90;0.90;;;;;;;15.47;62.23;100949.00;4440590;32;35195;-75
2022/11/11 13:49:25;;;;;;;2.47;1.98;;;;;;;15.21;62.75;100942.09;4440725;32;34156;-75
2022/11/11 13:52:31;;;;;;;0.75;0.75;;;;;;;14.36;66.74;100942.25;4439693;32;34893;-75
2022/11/11 13:55:28;;;;;;;2.03;1.00;;;;;;;14.73;64.68;100933.50;4439271;32;34976;-75
2022/11/11 13:58:26;;;;;;;1.00;1.00;;;;;;;14.66;64.97;100931.78;4439268;32;34412;-76
2022/11/11 14:01:13;;;;;;;1.65;1.35;;;;;;;14.27;67.09;100941.41;4439571;32;34288;-75
2022/11/11 14:04:03;;;;;;;1.70;1.60;;;;;;;14.58;65.40;100935.28;4439604;32;34128;-75
2022/11/11 14:06:51;;;;;;;5.78;2.53;;;;;;;14.59;65.64;100926.56;4428434;32;34778;-75
2022/11/11 14:09:59;;;;;;;2.05;1.95;;;;;;;14.59;65.85;100926.56;4439617;32;34652;-75
2022/11/11 14:12:48;;;;;;;1.00;1.00;;;;;;;14.40;66.46;100940.53;4439544;32;34392;-75
2022/11/11 14:15:51;;;;;;;1.65;1.55;;;;;;;13.97;68.52;100941.38;4439433;32;34193;-75
2022/11/11 14:18:40;;;;;;;3.65;2.78;;;;;;;13.95;68.81;100931.78;4428926;32;35101;-75
2022/11/11 14:21:53;;;;;;;2.42;2.25;;;;;;;13.87;68.64;100938.75;4439282;32;34528;-75
2022/11/11 14:24:45;;;;;;;3.57;3.00;;;;;;;13.91;69.40;100937.91;4439481;32;33471;-75
2022/11/11 14:27:32;;;;;;;1.73;1.62;;;;;;;13.87;69.36;100933.50;4428956;32;33873;-75
2022/11/11 14:30:36;;;;;;;6.43;3.22;;;;;;;13.50;70.82;100933.44;4439144;32;34984;-75
2022/11/11 14:33:48;;;;;;;1.85;1.75;;;;;;;13.60;70.34;100927.34;4439378;32;34509;-75
2022/11/11 14:36:50;;;;;;;1.87;1.77;;;;;;;13.09;72.14;100909.72;4440248;32;33516;-75
2022/11/11 14:39:50;;;;;;;2.28;2.17;;;;;;;12.91;73.39;100901.78;4438826;32;34038;-75
2022/11/11 14:42:37;;;;;;;1.10;1.10;;;;;;;13.11;72.39;100904.47;4439315;32;35167;-75
2022/11/11 14:45:29;;;;;;;1.58;1.48;;;;;;;13.94;68.71;100899.50;4440336;32;34477;-75
2022/11/11 14:48:47;;;;;;;2.20;2.00;;;;;;;13.58;69.36;100902.94;4440283;32;34182;-75
2022/11/11 14:51:38;;;;;;;2.08;1.95;;;;;;;13.62;70.00;100909.91;4439995;32;34140;-75